sensor_id;sensor_type;location;lat;lon;timestamp;P1;durP1;ratioP1;P2;durP2;ratioP2
23543;SDS011;11950;51.230;4.012;2023-04-03T00:00:33;3.30;;;2.83;;
23543;SDS011;11950;51.230;4.012;2023-04-03T00:02:59;5.63;;;3.17;;
23543;SDS011;11950;51.230;4.012;2023-04-03T00:05:26;4.80;;;3.55;;
23543;SDS011;11950;51.230;4.012;2023-04-03T00:07:52;4.30;;;3.10;;
23543;SDS011;11950;51.230;4.012;2023-04-03T00:10:18;6.43;;;3.20;;
23543;SDS011;11950;51.230;4.012;2023-04-03T00:12:45;4.18;;;3.13;;
23543;SDS011;11950;51.230;4.012;2023-04-03T00:15:11;6.18;;;3.60;;
23543;SDS011;11950;51.230;4.012;2023-04-03T00:17:37;5.82;;;3.67;;
23543;SDS011;11950;51.230;4.012;2023-04-03T00:20:04;3.88;;;3.47;;
23543;SDS011;11950;51.230;4.012;2023-04-03T00:22:31;5.95;;;3.70;;
23543;SDS011;11950;51.230;4.012;2023-04-03T00:24:57;5.60;;;3.78;;
23543;SDS011;11950;51.230;4.012;2023-04-03T00:27:23;7.53;;;3.90;;
23543;SDS011;11950;51.230;4.012;2023-04-03T00:29:50;7.28;;;4.55;;
23543;SDS011;11950;51.230;4.012;2023-04-03T00:32:16;7.22;;;4.32;;
23543;SDS011;11950;51.230;4.012;2023-04-03T00:34:42;8.68;;;4.90;;
23543;SDS011;11950;51.230;4.012;2023-04-03T00:37:09;6.93;;;5.15;;
23543;SDS011;11950;51.230;4.012;2023-04-03T00:39:35;7.85;;;4.72;;
23543;SDS011;11950;51.230;4.012;2023-04-03T00:42:02;6.32;;;4.53;;
23543;SDS011;11950;51.230;4.012;2023-04-03T00:47:01;6.05;;;4.63;;
23543;SDS011;11950;51.230;4.012;2023-04-03T00:49:29;6.07;;;4.57;;
23543;SDS011;11950;51.230;4.012;2023-04-03T00:51:56;6.88;;;4.85;;
23543;SDS011;11950;51.230;4.012;2023-04-03T00:54:24;5.63;;;4.90;;
23543;SDS011;11950;51.230;4.012;2023-04-03T00:56:51;7.18;;;4.85;;
23543;SDS011;11950;51.230;4.012;2023-04-03T00:59:21;8.00;;;4.82;;
23543;SDS011;11950;51.230;4.012;2023-04-03T01:01:53;5.10;;;4.60;;
23543;SDS011;11950;51.230;4.012;2023-04-03T01:04:30;5.45;;;4.40;;
23543;SDS011;11950;51.230;4.012;2023-04-03T01:07:00;5.85;;;4.30;;
23543;SDS011;11950;51.230;4.012;2023-04-03T01:09:30;6.18;;;4.88;;
23543;SDS011;11950;51.230;4.012;2023-04-03T01:14:46;4.38;;;3.97;;
23543;SDS011;11950;51.230;4.012;2023-04-03T01:17:38;6.25;;;4.65;;
23543;SDS011;11950;51.230;4.012;2023-04-03T01:25:56;5.47;;;4.38;;
23543;SDS011;11950;51.230;4.012;2023-04-03T01:31:09;7.18;;;4.63;;
23543;SDS011;11950;51.230;4.012;2023-04-03T01:33:56;5.63;;;4.35;;
23543;SDS011;11950;51.230;4.012;2023-04-03T01:36:24;7.25;;;4.43;;
23543;SDS011;11950;51.230;4.012;2023-04-03T01:38:53;6.80;;;4.93;;
23543;SDS011;11950;51.230;4.012;2023-04-03T01:41:21;6.45;;;5.15;;
23543;SDS011;11950;51.230;4.012;2023-04-03T01:43:51;7.20;;;4.45;;
23543;SDS011;11950;51.230;4.012;2023-04-03T01:46:18;6.18;;;4.60;;
23543;SDS011;11950;51.230;4.012;2023-04-03T01:48:46;6.07;;;5.32;;
23543;SDS011;11950;51.230;4.012;2023-04-03T01:51:12;6.60;;;5.03;;
23543;SDS011;11950;51.230;4.012;2023-04-03T01:53:39;7.13;;;5.68;;
23543;SDS011;11950;51.230;4.012;2023-04-03T01:56:05;7.20;;;5.30;;
23543;SDS011;11950;51.230;4.012;2023-04-03T01:58:32;7.80;;;5.28;;
23543;SDS011;11950;51.230;4.012;2023-04-03T02:00:59;6.90;;;5.13;;
23543;SDS011;11950;51.230;4.012;2023-04-03T02:03:25;6.95;;;5.10;;
23543;SDS011;11950;51.230;4.012;2023-04-03T02:05:52;7.07;;;5.13;;
23543;SDS011;11950;51.230;4.012;2023-04-03T02:08:18;7.70;;;5.70;;
23543;SDS011;11950;51.230;4.012;2023-04-03T02:10:48;7.85;;;5.18;;
23543;SDS011;11950;51.230;4.012;2023-04-03T02:13:16;7.18;;;5.13;;
23543;SDS011;11950;51.230;4.012;2023-04-03T02:15:44;6.70;;;4.88;;
23543;SDS011;11950;51.230;4.012;2023-04-03T02:18:11;6.85;;;5.18;;
23543;SDS011;11950;51.230;4.012;2023-04-03T02:20:38;9.02;;;4.72;;
23543;SDS011;11950;51.230;4.012;2023-04-03T02:23:04;8.07;;;5.40;;
23543;SDS011;11950;51.230;4.012;2023-04-03T02:25:31;9.55;;;5.22;;
23543;SDS011;11950;51.230;4.012;2023-04-03T02:27:58;6.18;;;5.38;;
23543;SDS011;11950;51.230;4.012;2023-04-03T02:30:24;8.07;;;4.72;;
23543;SDS011;11950;51.230;4.012;2023-04-03T02:32:52;8.82;;;5.05;;
23543;SDS011;11950;51.230;4.012;2023-04-03T02:35:18;6.78;;;5.28;;
23543;SDS011;11950;51.230;4.012;2023-04-03T02:37:46;8.02;;;5.25;;
23543;SDS011;11950;51.230;4.012;2023-04-03T02:40:13;6.95;;;5.10;;
23543;SDS011;11950;51.230;4.012;2023-04-03T02:42:39;9.55;;;5.43;;
23543;SDS011;11950;51.230;4.012;2023-04-03T02:45:06;9.38;;;5.70;;
23543;SDS011;11950;51.230;4.012;2023-04-03T02:47:33;9.38;;;5.35;;
23543;SDS011;11950;51.230;4.012;2023-04-03T02:49:59;7.82;;;5.75;;
23543;SDS011;11950;51.230;4.012;2023-04-03T02:52:25;7.55;;;6.25;;
23543;SDS011;11950;51.230;4.012;2023-04-03T02:54:54;6.70;;;5.93;;
23543;SDS011;11950;51.230;4.012;2023-04-03T02:57:21;7.85;;;5.97;;
23543;SDS011;11950;51.230;4.012;2023-04-03T02:59:48;8.18;;;5.65;;
23543;SDS011;11950;51.230;4.012;2023-04-03T03:02:14;7.00;;;5.70;;
23543;SDS011;11950;51.230;4.012;2023-04-03T03:04:40;8.40;;;5.90;;
23543;SDS011;11950;51.230;4.012;2023-04-03T03:07:07;10.13;;;6.80;;
23543;SDS011;11950;51.230;4.012;2023-04-03T03:09:33;10.80;;;7.90;;
23543;SDS011;11950;51.230;4.012;2023-04-03T03:11:59;15.00;;;8.55;;
23543;SDS011;11950;51.230;4.012;2023-04-03T03:14:26;13.30;;;8.27;;
23543;SDS011;11950;51.230;4.012;2023-04-03T03:16:52;14.75;;;8.02;;
23543;SDS011;11950;51.230;4.012;2023-04-03T03:19:18;13.27;;;8.75;;
23543;SDS011;11950;51.230;4.012;2023-04-03T03:21:45;17.13;;;8.30;;
23543;SDS011;11950;51.230;4.012;2023-04-03T03:24:11;12.07;;;8.25;;
23543;SDS011;11950;51.230;4.012;2023-04-03T03:26:38;11.07;;;7.90;;
23543;SDS011;11950;51.230;4.012;2023-04-03T03:29:04;13.07;;;8.27;;
23543;SDS011;11950;51.230;4.012;2023-04-03T03:31:31;12.02;;;8.13;;
23543;SDS011;11950;51.230;4.012;2023-04-03T03:33:58;8.77;;;7.57;;
23543;SDS011;11950;51.230;4.012;2023-04-03T03:36:24;12.23;;;7.00;;
23543;SDS011;11950;51.230;4.012;2023-04-03T03:38:51;9.48;;;7.53;;
23543;SDS011;11950;51.230;4.012;2023-04-03T03:41:17;11.40;;;7.28;;
23543;SDS011;11950;51.230;4.012;2023-04-03T03:43:44;12.10;;;7.53;;
23543;SDS011;11950;51.230;4.012;2023-04-03T03:46:12;9.45;;;6.88;;
23543;SDS011;11950;51.230;4.012;2023-04-03T03:48:38;11.13;;;7.53;;
23543;SDS011;11950;51.230;4.012;2023-04-03T03:51:05;8.73;;;7.30;;
23543;SDS011;11950;51.230;4.012;2023-04-03T03:53:35;9.75;;;7.05;;
23543;SDS011;11950;51.230;4.012;2023-04-03T03:56:05;8.95;;;6.43;;
23543;SDS011;11950;51.230;4.012;2023-04-03T03:58:34;8.10;;;6.47;;
23543;SDS011;11950;51.230;4.012;2023-04-03T04:01:02;7.72;;;6.40;;
23543;SDS011;11950;51.230;4.012;2023-04-03T04:03:32;9.88;;;6.55;;
23543;SDS011;11950;51.230;4.012;2023-04-03T04:05:58;9.90;;;7.00;;
23543;SDS011;11950;51.230;4.012;2023-04-03T04:08:26;8.75;;;6.30;;
23543;SDS011;11950;51.230;4.012;2023-04-03T04:10:52;7.20;;;6.03;;
23543;SDS011;11950;51.230;4.012;2023-04-03T04:13:19;9.07;;;6.32;;
23543;SDS011;11950;51.230;4.012;2023-04-03T04:15:45;9.55;;;6.22;;
23543;SDS011;11950;51.230;4.012;2023-04-03T04:18:13;7.10;;;6.00;;
23543;SDS011;11950;51.230;4.012;2023-04-03T04:20:42;8.82;;;6.18;;
23543;SDS011;11950;51.230;4.012;2023-04-03T04:23:11;9.38;;;6.28;;
23543;SDS011;11950;51.230;4.012;2023-04-03T04:25:37;9.50;;;7.05;;
23543;SDS011;11950;51.230;4.012;2023-04-03T04:28:05;7.20;;;5.72;;
23543;SDS011;11950;51.230;4.012;2023-04-03T04:30:31;9.50;;;6.22;;
23543;SDS011;11950;51.230;4.012;2023-04-03T04:32:58;7.07;;;6.18;;
23543;SDS011;11950;51.230;4.012;2023-04-03T04:35:25;7.80;;;6.50;;
23543;SDS011;11950;51.230;4.012;2023-04-03T04:37:52;7.55;;;6.03;;
23543;SDS011;11950;51.230;4.012;2023-04-03T04:40:19;10.20;;;6.07;;
23543;SDS011;11950;51.230;4.012;2023-04-03T04:42:46;9.23;;;6.22;;
23543;SDS011;11950;51.230;4.012;2023-04-03T04:45:12;8.02;;;7.20;;
23543;SDS011;11950;51.230;4.012;2023-04-03T04:47:41;6.85;;;6.10;;
23543;SDS011;11950;51.230;4.012;2023-04-03T04:50:08;7.00;;;5.75;;
23543;SDS011;11950;51.230;4.012;2023-04-03T04:52:35;9.13;;;6.65;;
23543;SDS011;11950;51.230;4.012;2023-04-03T04:55:02;7.93;;;6.63;;
23543;SDS011;11950;51.230;4.012;2023-04-03T04:57:29;8.00;;;6.20;;
23543;SDS011;11950;51.230;4.012;2023-04-03T04:59:58;7.80;;;7.00;;
23543;SDS011;11950;51.230;4.012;2023-04-03T05:02:24;8.93;;;6.63;;
23543;SDS011;11950;51.230;4.012;2023-04-03T05:04:51;7.47;;;6.10;;
23543;SDS011;11950;51.230;4.012;2023-04-03T05:07:22;8.93;;;6.90;;
23543;SDS011;11950;51.230;4.012;2023-04-03T05:09:48;8.18;;;6.60;;
23543;SDS011;11950;51.230;4.012;2023-04-03T05:12:16;9.23;;;6.70;;
23543;SDS011;11950;51.230;4.012;2023-04-03T05:14:48;8.70;;;6.32;;
23543;SDS011;11950;51.230;4.012;2023-04-03T05:17:15;9.98;;;6.80;;
23543;SDS011;11950;51.230;4.012;2023-04-03T05:19:47;8.48;;;6.38;;
23543;SDS011;11950;51.230;4.012;2023-04-03T05:22:14;10.43;;;6.18;;
23543;SDS011;11950;51.230;4.012;2023-04-03T05:24:41;6.97;;;6.28;;
23543;SDS011;11950;51.230;4.012;2023-04-03T05:27:08;12.25;;;7.30;;
23543;SDS011;11950;51.230;4.012;2023-04-03T05:29:38;7.90;;;6.20;;
23543;SDS011;11950;51.230;4.012;2023-04-03T05:32:05;7.18;;;6.45;;
23543;SDS011;11950;51.230;4.012;2023-04-03T05:34:31;9.25;;;6.45;;
23543;SDS011;11950;51.230;4.012;2023-04-03T05:36:59;9.85;;;6.35;;
23543;SDS011;11950;51.230;4.012;2023-04-03T05:39:27;9.75;;;6.88;;
23543;SDS011;11950;51.230;4.012;2023-04-03T05:41:54;10.88;;;6.82;;
23543;SDS011;11950;51.230;4.012;2023-04-03T05:44:21;7.90;;;6.55;;
23543;SDS011;11950;51.230;4.012;2023-04-03T05:46:49;11.50;;;7.03;;
23543;SDS011;11950;51.230;4.012;2023-04-03T05:49:15;9.68;;;6.85;;
23543;SDS011;11950;51.230;4.012;2023-04-03T05:51:42;8.57;;;6.90;;
23543;SDS011;11950;51.230;4.012;2023-04-03T05:54:20;10.77;;;7.13;;
23543;SDS011;11950;51.230;4.012;2023-04-03T05:56:51;10.48;;;7.00;;
23543;SDS011;11950;51.230;4.012;2023-04-03T05:59:20;9.90;;;7.70;;
23543;SDS011;11950;51.230;4.012;2023-04-03T06:01:49;8.07;;;7.00;;
23543;SDS011;11950;51.230;4.012;2023-04-03T06:04:15;12.38;;;7.53;;
23543;SDS011;11950;51.230;4.012;2023-04-03T06:06:46;10.93;;;7.75;;
23543;SDS011;11950;51.230;4.012;2023-04-03T06:09:14;9.15;;;7.15;;
23543;SDS011;11950;51.230;4.012;2023-04-03T06:11:41;9.13;;;6.78;;
23543;SDS011;11950;51.230;4.012;2023-04-03T06:14:08;9.80;;;7.25;;
23543;SDS011;11950;51.230;4.012;2023-04-03T06:16:34;11.65;;;7.50;;
23543;SDS011;11950;51.230;4.012;2023-04-03T06:19:01;10.98;;;7.15;;
23543;SDS011;11950;51.230;4.012;2023-04-03T06:21:28;8.10;;;6.50;;
23543;SDS011;11950;51.230;4.012;2023-04-03T06:23:54;8.90;;;7.00;;
23543;SDS011;11950;51.230;4.012;2023-04-03T06:26:21;11.80;;;7.50;;
23543;SDS011;11950;51.230;4.012;2023-04-03T06:28:47;9.98;;;7.38;;
23543;SDS011;11950;51.230;4.012;2023-04-03T06:31:14;9.07;;;7.00;;
23543;SDS011;11950;51.230;4.012;2023-04-03T06:33:41;11.95;;;7.70;;
23543;SDS011;11950;51.230;4.012;2023-04-03T06:36:07;12.60;;;7.65;;
23543;SDS011;11950;51.230;4.012;2023-04-03T06:38:36;11.45;;;8.05;;
23543;SDS011;11950;51.230;4.012;2023-04-03T06:41:02;9.98;;;8.43;;
23543;SDS011;11950;51.230;4.012;2023-04-03T06:43:28;8.02;;;7.22;;
23543;SDS011;11950;51.230;4.012;2023-04-03T06:45:56;12.30;;;7.15;;
23543;SDS011;11950;51.230;4.012;2023-04-03T06:48:23;7.82;;;6.20;;
23543;SDS011;11950;51.230;4.012;2023-04-03T06:50:49;9.88;;;6.43;;
23543;SDS011;11950;51.230;4.012;2023-04-03T06:53:16;9.38;;;5.60;;
23543;SDS011;11950;51.230;4.012;2023-04-03T06:55:42;7.65;;;6.18;;
23543;SDS011;11950;51.230;4.012;2023-04-03T06:58:08;8.10;;;6.05;;
23543;SDS011;11950;51.230;4.012;2023-04-03T07:00:35;9.15;;;5.80;;
23543;SDS011;11950;51.230;4.012;2023-04-03T07:03:01;9.38;;;6.10;;
23543;SDS011;11950;51.230;4.012;2023-04-03T07:05:28;8.05;;;5.15;;
23543;SDS011;11950;51.230;4.012;2023-04-03T07:07:54;6.90;;;5.78;;
23543;SDS011;11950;51.230;4.012;2023-04-03T07:10:20;9.05;;;5.30;;
23543;SDS011;11950;51.230;4.012;2023-04-03T07:12:46;7.10;;;5.78;;
23543;SDS011;11950;51.230;4.012;2023-04-03T07:15:13;7.28;;;5.85;;
23543;SDS011;11950;51.230;4.012;2023-04-03T07:17:40;9.13;;;6.00;;
23543;SDS011;11950;51.230;4.012;2023-04-03T07:20:06;10.85;;;5.93;;
23543;SDS011;11950;51.230;4.012;2023-04-03T07:22:33;8.77;;;6.03;;
23543;SDS011;11950;51.230;4.012;2023-04-03T07:25:00;9.63;;;5.63;;
23543;SDS011;11950;51.230;4.012;2023-04-03T07:27:27;7.55;;;6.13;;
23543;SDS011;11950;51.230;4.012;2023-04-03T07:29:54;9.77;;;6.55;;
23543;SDS011;11950;51.230;4.012;2023-04-03T07:32:21;7.97;;;6.53;;
23543;SDS011;11950;51.230;4.012;2023-04-03T07:34:47;8.15;;;5.95;;
23543;SDS011;11950;51.230;4.012;2023-04-03T07:37:14;8.25;;;6.13;;
23543;SDS011;11950;51.230;4.012;2023-04-03T07:39:43;9.70;;;6.05;;
23543;SDS011;11950;51.230;4.012;2023-04-03T07:42:10;7.72;;;5.53;;
23543;SDS011;11950;51.230;4.012;2023-04-03T07:44:37;9.32;;;5.57;;
23543;SDS011;11950;51.230;4.012;2023-04-03T07:47:04;7.65;;;6.13;;
23543;SDS011;11950;51.230;4.012;2023-04-03T07:49:30;9.38;;;6.68;;
23543;SDS011;11950;51.230;4.012;2023-04-03T07:51:58;8.30;;;5.45;;
23543;SDS011;11950;51.230;4.012;2023-04-03T07:54:24;5.75;;;4.93;;
23543;SDS011;11950;51.230;4.012;2023-04-03T07:56:51;9.43;;;5.70;;
23543;SDS011;11950;51.230;4.012;2023-04-03T07:59:17;10.45;;;5.55;;
23543;SDS011;11950;51.230;4.012;2023-04-03T08:01:43;8.23;;;5.43;;
23543;SDS011;11950;51.230;4.012;2023-04-03T08:04:10;6.63;;;4.13;;
23543;SDS011;11950;51.230;4.012;2023-04-03T08:06:36;7.93;;;4.47;;
23543;SDS011;11950;51.230;4.012;2023-04-03T08:09:03;6.95;;;4.32;;
23543;SDS011;11950;51.230;4.012;2023-04-03T08:11:29;7.95;;;4.38;;
23543;SDS011;11950;51.230;4.012;2023-04-03T08:13:56;7.68;;;4.50;;
23543;SDS011;11950;51.230;4.012;2023-04-03T08:16:24;8.73;;;6.13;;
23543;SDS011;11950;51.230;4.012;2023-04-03T08:18:54;10.55;;;4.55;;
23543;SDS011;11950;51.230;4.012;2023-04-03T08:21:20;7.38;;;4.15;;
23543;SDS011;11950;51.230;4.012;2023-04-03T08:23:48;5.45;;;3.47;;
23543;SDS011;11950;51.230;4.012;2023-04-03T08:26:17;4.22;;;3.50;;
23543;SDS011;11950;51.230;4.012;2023-04-03T08:28:47;6.70;;;4.00;;
23543;SDS011;11950;51.230;4.012;2023-04-03T08:31:15;6.95;;;3.92;;
23543;SDS011;11950;51.230;4.012;2023-04-03T08:33:44;6.20;;;4.10;;
23543;SDS011;11950;51.230;4.012;2023-04-03T08:36:21;7.30;;;2.78;;
23543;SDS011;11950;51.230;4.012;2023-04-03T08:38:49;5.45;;;2.92;;
23543;SDS011;11950;51.230;4.012;2023-04-03T08:41:35;8.60;;;3.45;;
23543;SDS011;11950;51.230;4.012;2023-04-03T08:49:24;5.47;;;2.03;;
23543;SDS011;11950;51.230;4.012;2023-04-03T08:51:59;6.43;;;2.00;;
23543;SDS011;11950;51.230;4.012;2023-04-03T08:54:35;4.28;;;2.38;;
23543;SDS011;11950;51.230;4.012;2023-04-03T08:57:09;5.60;;;2.22;;
23543;SDS011;11950;51.230;4.012;2023-04-03T08:59:38;5.97;;;3.28;;
23543;SDS011;11950;51.230;4.012;2023-04-03T09:02:26;6.90;;;3.50;;
23543;SDS011;11950;51.230;4.012;2023-04-03T09:05:01;7.95;;;2.95;;
23543;SDS011;11950;51.230;4.012;2023-04-03T09:07:33;3.72;;;1.50;;
23543;SDS011;11950;51.230;4.012;2023-04-03T09:10:05;2.65;;;1.23;;
23543;SDS011;11950;51.230;4.012;2023-04-03T09:12:33;4.65;;;1.15;;
23543;SDS011;11950;51.230;4.012;2023-04-03T09:15:21;3.03;;;1.20;;
23543;SDS011;11950;51.230;4.012;2023-04-03T09:25:56;2.95;;;1.30;;
23543;SDS011;11950;51.230;4.012;2023-04-03T09:28:29;6.10;;;1.40;;
23543;SDS011;11950;51.230;4.012;2023-04-03T09:30:59;2.42;;;1.20;;
23543;SDS011;11950;51.230;4.012;2023-04-03T09:33:26;4.25;;;1.50;;
23543;SDS011;11950;51.230;4.012;2023-04-03T09:35:54;2.63;;;1.20;;
23543;SDS011;11950;51.230;4.012;2023-04-03T09:38:21;2.13;;;1.30;;
23543;SDS011;11950;51.230;4.012;2023-04-03T09:40:48;4.50;;;1.38;;
23543;SDS011;11950;51.230;4.012;2023-04-03T09:43:31;5.00;;;1.70;;
23543;SDS011;11950;51.230;4.012;2023-04-03T09:46:16;3.53;;;1.20;;
23543;SDS011;11950;51.230;4.012;2023-04-03T09:48:49;2.85;;;1.40;;
23543;SDS011;11950;51.230;4.012;2023-04-03T09:51:17;5.20;;;1.02;;
23543;SDS011;11950;51.230;4.012;2023-04-03T09:53:44;2.63;;;1.30;;
23543;SDS011;11950;51.230;4.012;2023-04-03T09:58:44;3.65;;;1.55;;
23543;SDS011;11950;51.230;4.012;2023-04-03T10:01:31;4.68;;;1.50;;
23543;SDS011;11950;51.230;4.012;2023-04-03T10:06:40;3.72;;;1.30;;
23543;SDS011;11950;51.230;4.012;2023-04-03T10:09:23;4.53;;;1.63;;
23543;SDS011;11950;51.230;4.012;2023-04-03T10:14:23;1.48;;;1.00;;
23543;SDS011;11950;51.230;4.012;2023-04-03T10:16:56;3.35;;;1.13;;
23543;SDS011;11950;51.230;4.012;2023-04-03T10:19:37;2.25;;;1.40;;
23543;SDS011;11950;51.230;4.012;2023-04-03T10:25:03;6.15;;;1.10;;
23543;SDS011;11950;51.230;4.012;2023-04-03T10:30:15;2.90;;;1.20;;
23543;SDS011;11950;51.230;4.012;2023-04-03T10:38:12;4.00;;;1.58;;
23543;SDS011;11950;51.230;4.012;2023-04-03T10:43:43;5.13;;;1.10;;
23543;SDS011;11950;51.230;4.012;2023-04-03T10:46:19;1.60;;;1.00;;
23543;SDS011;11950;51.230;4.012;2023-04-03T10:51:50;2.63;;;1.17;;
23543;SDS011;11950;51.230;4.012;2023-04-03T10:54:42;1.77;;;1.08;;
23543;SDS011;11950;51.230;4.012;2023-04-03T10:57:23;3.55;;;1.10;;
23543;SDS011;11950;51.230;4.012;2023-04-03T11:00:34;2.03;;;0.95;;
23543;SDS011;11950;51.230;4.012;2023-04-03T11:02:51;2.85;;;1.05;;
23543;SDS011;11950;51.230;4.012;2023-04-03T11:08:29;1.35;;;0.75;;
23543;SDS011;11950;51.230;4.012;2023-04-03T11:11:08;3.28;;;1.10;;
23543;SDS011;11950;51.230;4.012;2023-04-03T11:13:40;5.47;;;1.40;;
23543;SDS011;11950;51.230;4.012;2023-04-03T11:16:28;2.50;;;1.20;;
23543;SDS011;11950;51.230;4.012;2023-04-03T11:18:59;2.70;;;1.00;;
23543;SDS011;11950;51.230;4.012;2023-04-03T11:21:32;2.38;;;0.85;;
23543;SDS011;11950;51.230;4.012;2023-04-03T11:24:05;1.55;;;0.93;;
23543;SDS011;11950;51.230;4.012;2023-04-03T11:26:42;3.17;;;0.90;;
23543;SDS011;11950;51.230;4.012;2023-04-03T11:29:11;2.30;;;0.90;;
23543;SDS011;11950;51.230;4.012;2023-04-03T11:31:57;3.90;;;1.00;;
23543;SDS011;11950;51.230;4.012;2023-04-03T11:34:39;3.97;;;0.80;;
23543;SDS011;11950;51.230;4.012;2023-04-03T11:40:05;2.15;;;0.90;;
23543;SDS011;11950;51.230;4.012;2023-04-03T11:42:46;2.88;;;0.90;;
23543;SDS011;11950;51.230;4.012;2023-04-03T11:47:53;1.40;;;0.73;;
23543;SDS011;11950;51.230;4.012;2023-04-03T12:05:51;1.67;;;0.90;;
23543;SDS011;11950;51.230;4.012;2023-04-03T12:08:26;2.88;;;1.00;;
23543;SDS011;11950;51.230;4.012;2023-04-03T12:19:49;2.47;;;0.80;;
23543;SDS011;11950;51.230;4.012;2023-04-03T12:22:14;1.23;;;0.80;;
23543;SDS011;11950;51.230;4.012;2023-04-03T12:25:01;3.30;;;0.90;;
23543;SDS011;11950;51.230;4.012;2023-04-03T12:27:47;1.75;;;0.95;;
23543;SDS011;11950;51.230;4.012;2023-04-03T12:30:25;3.45;;;0.73;;
23543;SDS011;11950;51.230;4.012;2023-04-03T12:35:37;2.20;;;0.50;;
23543;SDS011;11950;51.230;4.012;2023-04-03T12:41:18;1.23;;;0.70;;
23543;SDS011;11950;51.230;4.012;2023-04-03T12:46:43;1.20;;;0.70;;
23543;SDS011;11950;51.230;4.012;2023-04-03T12:49:18;1.33;;;0.82;;
23543;SDS011;11950;51.230;4.012;2023-04-03T12:51:57;1.75;;;0.60;;
23543;SDS011;11950;51.230;4.012;2023-04-03T12:59:55;1.80;;;0.50;;
23543;SDS011;11950;51.230;4.012;2023-04-03T13:02:29;0.88;;;0.60;;
23543;SDS011;11950;51.230;4.012;2023-04-03T13:04:58;2.65;;;0.60;;
23543;SDS011;11950;51.230;4.012;2023-04-03T13:07:36;2.25;;;0.60;;
23543;SDS011;11950;51.230;4.012;2023-04-03T13:12:34;1.95;;;0.70;;
23543;SDS011;11950;51.230;4.012;2023-04-03T13:15:24;2.15;;;0.70;;
23543;SDS011;11950;51.230;4.012;2023-04-03T13:17:53;3.40;;;0.70;;
23543;SDS011;11950;51.230;4.012;2023-04-03T13:22:53;2.97;;;0.70;;
23543;SDS011;11950;51.230;4.012;2023-04-03T13:25:23;2.80;;;0.70;;
23543;SDS011;11950;51.230;4.012;2023-04-03T13:27:51;1.10;;;0.60;;
23543;SDS011;11950;51.230;4.012;2023-04-03T13:30:23;2.50;;;0.90;;
23543;SDS011;11950;51.230;4.012;2023-04-03T13:32:55;1.27;;;0.60;;
23543;SDS011;11950;51.230;4.012;2023-04-03T13:35:44;1.67;;;0.70;;
23543;SDS011;11950;51.230;4.012;2023-04-03T13:40:49;2.75;;;0.80;;
23543;SDS011;11950;51.230;4.012;2023-04-03T13:43:19;1.27;;;1.00;;
23543;SDS011;11950;51.230;4.012;2023-04-03T13:48:24;1.70;;;0.80;;
23543;SDS011;11950;51.230;4.012;2023-04-03T13:50:59;3.50;;;0.75;;
23543;SDS011;11950;51.230;4.012;2023-04-03T13:53:27;4.22;;;1.02;;
23543;SDS011;11950;51.230;4.012;2023-04-03T13:58:29;4.22;;;0.77;;
23543;SDS011;11950;51.230;4.012;2023-04-03T14:06:32;0.77;;;0.70;;
23543;SDS011;11950;51.230;4.012;2023-04-03T14:08:58;2.67;;;1.10;;
23543;SDS011;11950;51.230;4.012;2023-04-03T14:11:26;1.88;;;0.73;;
23543;SDS011;11950;51.230;4.012;2023-04-03T14:13:57;1.30;;;0.80;;
23543;SDS011;11950;51.230;4.012;2023-04-03T14:16:27;1.90;;;0.82;;
23543;SDS011;11950;51.230;4.012;2023-04-03T14:18:57;2.58;;;0.70;;
23543;SDS011;11950;51.230;4.012;2023-04-03T14:21:24;0.88;;;0.70;;
23543;SDS011;11950;51.230;4.012;2023-04-03T14:23:50;4.10;;;0.73;;
23543;SDS011;11950;51.230;4.012;2023-04-03T14:26:18;0.70;;;0.70;;
23543;SDS011;11950;51.230;4.012;2023-04-03T14:28:47;2.20;;;0.65;;
23543;SDS011;11950;51.230;4.012;2023-04-03T14:31:15;1.67;;;0.60;;
23543;SDS011;11950;51.230;4.012;2023-04-03T14:33:43;1.10;;;0.60;;
23543;SDS011;11950;51.230;4.012;2023-04-03T14:36:11;1.38;;;0.65;;
23543;SDS011;11950;51.230;4.012;2023-04-03T14:38:44;0.93;;;0.70;;
23543;SDS011;11950;51.230;4.012;2023-04-03T14:41:15;1.83;;;0.82;;
23543;SDS011;11950;51.230;4.012;2023-04-03T14:43:44;2.25;;;0.90;;
23543;SDS011;11950;51.230;4.012;2023-04-03T14:46:13;4.07;;;0.60;;
23543;SDS011;11950;51.230;4.012;2023-04-03T14:48:44;1.00;;;0.60;;
23543;SDS011;11950;51.230;4.012;2023-04-03T14:51:12;1.17;;;0.60;;
23543;SDS011;11950;51.230;4.012;2023-04-03T14:53:40;0.80;;;0.60;;
23543;SDS011;11950;51.230;4.012;2023-04-03T14:56:12;1.63;;;0.50;;
23543;SDS011;11950;51.230;4.012;2023-04-03T14:58:38;0.73;;;0.50;;
23543;SDS011;11950;51.230;4.012;2023-04-03T15:01:04;2.83;;;1.02;;
23543;SDS011;11950;51.230;4.012;2023-04-03T15:03:31;1.20;;;0.60;;
23543;SDS011;11950;51.230;4.012;2023-04-03T15:05:57;1.20;;;0.50;;
23543;SDS011;11950;51.230;4.012;2023-04-03T15:08:25;0.85;;;0.63;;
23543;SDS011;11950;51.230;4.012;2023-04-03T15:10:55;0.80;;;0.52;;
23543;SDS011;11950;51.230;4.012;2023-04-03T15:13:22;1.15;;;0.60;;
23543;SDS011;11950;51.230;4.012;2023-04-03T15:15:49;1.05;;;0.63;;
23543;SDS011;11950;51.230;4.012;2023-04-03T15:18:18;1.77;;;1.35;;
23543;SDS011;11950;51.230;4.012;2023-04-03T15:20:47;1.88;;;0.70;;
23543;SDS011;11950;51.230;4.012;2023-04-03T15:23:14;2.00;;;0.57;;
23543;SDS011;11950;51.230;4.012;2023-04-03T15:25:42;1.73;;;0.60;;
23543;SDS011;11950;51.230;4.012;2023-04-03T15:28:16;1.80;;;0.80;;
23543;SDS011;11950;51.230;4.012;2023-04-03T15:30:49;2.13;;;0.77;;
23543;SDS011;11950;51.230;4.012;2023-04-03T15:33:16;0.90;;;0.60;;
23543;SDS011;11950;51.230;4.012;2023-04-03T15:35:43;1.73;;;0.63;;
23543;SDS011;11950;51.230;4.012;2023-04-03T15:38:09;0.85;;;0.70;;
23543;SDS011;11950;51.230;4.012;2023-04-03T15:40:36;1.30;;;0.50;;
23543;SDS011;11950;51.230;4.012;2023-04-03T15:43:04;1.67;;;0.60;;
23543;SDS011;11950;51.230;4.012;2023-04-03T15:45:31;1.70;;;0.73;;
23543;SDS011;11950;51.230;4.012;2023-04-03T15:47:59;1.90;;;0.63;;
23543;SDS011;11950;51.230;4.012;2023-04-03T15:50:25;2.45;;;1.08;;
23543;SDS011;11950;51.230;4.012;2023-04-03T15:52:52;2.53;;;0.95;;
23543;SDS011;11950;51.230;4.012;2023-04-03T15:55:21;2.30;;;0.80;;
23543;SDS011;11950;51.230;4.012;2023-04-03T15:57:49;1.17;;;0.60;;
23543;SDS011;11950;51.230;4.012;2023-04-03T16:00:15;0.93;;;0.57;;
23543;SDS011;11950;51.230;4.012;2023-04-03T16:02:43;0.57;;;0.50;;
23543;SDS011;11950;51.230;4.012;2023-04-03T16:05:11;3.03;;;0.77;;
23543;SDS011;11950;51.230;4.012;2023-04-03T16:07:39;0.82;;;0.50;;
23543;SDS011;11950;51.230;4.012;2023-04-03T16:10:06;1.20;;;0.77;;
23543;SDS011;11950;51.230;4.012;2023-04-03T16:12:34;1.67;;;0.70;;
23543;SDS011;11950;51.230;4.012;2023-04-03T16:15:01;1.02;;;0.60;;
23543;SDS011;11950;51.230;4.012;2023-04-03T16:17:27;3.80;;;1.48;;
23543;SDS011;11950;51.230;4.012;2023-04-03T16:19:54;0.80;;;0.70;;
23543;SDS011;11950;51.230;4.012;2023-04-03T16:22:21;2.00;;;1.20;;
23543;SDS011;11950;51.230;4.012;2023-04-03T16:24:50;1.98;;;0.63;;
23543;SDS011;11950;51.230;4.012;2023-04-03T16:27:16;1.00;;;0.60;;
23543;SDS011;11950;51.230;4.012;2023-04-03T16:29:43;0.82;;;0.70;;
23543;SDS011;11950;51.230;4.012;2023-04-03T16:32:09;5.57;;;1.40;;
23543;SDS011;11950;51.230;4.012;2023-04-03T16:34:35;2.65;;;0.90;;
23543;SDS011;11950;51.230;4.012;2023-04-03T16:37:02;1.50;;;0.80;;
23543;SDS011;11950;51.230;4.012;2023-04-03T16:39:28;2.20;;;1.00;;
23543;SDS011;11950;51.230;4.012;2023-04-03T16:41:54;3.10;;;0.75;;
23543;SDS011;11950;51.230;4.012;2023-04-03T16:44:21;2.22;;;0.70;;
23543;SDS011;11950;51.230;4.012;2023-04-03T16:46:47;2.47;;;0.80;;
23543;SDS011;11950;51.230;4.012;2023-04-03T16:49:14;3.13;;;0.80;;
23543;SDS011;11950;51.230;4.012;2023-04-03T16:51:41;1.75;;;0.80;;
23543;SDS011;11950;51.230;4.012;2023-04-03T16:54:07;1.70;;;1.60;;